sensor_id;sensor_type;location;lat;lon;timestamp;P1;durP1;ratioP1;P2;durP2;ratioP2
10191;SDS011;17580;50.850;4.504;2022-07-05T00:01:15;1.60;;;1.50;;
10191;SDS011;17580;50.850;4.504;2022-07-05T00:03:42;1.60;;;1.50;;
10191;SDS011;17580;50.850;4.504;2022-07-05T00:06:09;1.60;;;1.50;;
10191;SDS011;17580;50.850;4.504;2022-07-05T00:08:36;1.60;;;1.50;;
10191;SDS011;17580;50.850;4.504;2022-07-05T00:11:04;1.60;;;1.50;;
10191;SDS011;17580;50.850;4.504;2022-07-05T00:13:31;1.70;;;1.60;;
10191;SDS011;17580;50.850;4.504;2022-07-05T00:15:59;1.70;;;1.70;;
10191;SDS011;17580;50.850;4.504;2022-07-05T00:18:27;1.30;;;1.30;;
10191;SDS011;17580;50.850;4.504;2022-07-05T00:20:54;1.70;;;1.60;;
10191;SDS011;17580;50.850;4.504;2022-07-05T00:23:21;1.60;;;1.60;;
10191;SDS011;17580;50.850;4.504;2022-07-05T00:25:48;1.33;;;1.33;;
10191;SDS011;17580;50.850;4.504;2022-07-05T00:28:15;1.63;;;1.50;;
10191;SDS011;17580;50.850;4.504;2022-07-05T00:30:41;2.03;;;1.70;;
10191;SDS011;17580;50.850;4.504;2022-07-05T00:33:08;1.40;;;1.40;;
10191;SDS011;17580;50.850;4.504;2022-07-05T00:35:37;1.37;;;1.37;;
10191;SDS011;17580;50.850;4.504;2022-07-05T00:38:04;1.47;;;1.30;;
10191;SDS011;17580;50.850;4.504;2022-07-05T00:40:31;1.70;;;1.60;;
10191;SDS011;17580;50.850;4.504;2022-07-05T00:42:58;1.37;;;1.27;;
10191;SDS011;17580;50.850;4.504;2022-07-05T00:45:24;1.50;;;1.40;;
10191;SDS011;17580;50.850;4.504;2022-07-05T00:47:52;4.70;;;1.77;;
10191;SDS011;17580;50.850;4.504;2022-07-05T00:50:19;1.70;;;1.60;;
10191;SDS011;17580;50.850;4.504;2022-07-05T00:52:47;1.40;;;1.30;;
10191;SDS011;17580;50.850;4.504;2022-07-05T00:55:15;1.43;;;1.43;;
10191;SDS011;17580;50.850;4.504;2022-07-05T00:57:42;1.50;;;1.50;;
10191;SDS011;17580;50.850;4.504;2022-07-05T01:00:09;4.10;;;1.70;;
10191;SDS011;17580;50.850;4.504;2022-07-05T01:02:37;1.83;;;1.70;;
10191;SDS011;17580;50.850;4.504;2022-07-05T01:05:04;1.50;;;1.40;;
10191;SDS011;17580;50.850;4.504;2022-07-05T01:07:31;2.57;;;1.83;;
10191;SDS011;17580;50.850;4.504;2022-07-05T01:10:00;3.90;;;1.40;;
10191;SDS011;17580;50.850;4.504;2022-07-05T01:12:27;1.30;;;1.30;;
10191;SDS011;17580;50.850;4.504;2022-07-05T01:14:54;2.10;;;1.43;;
10191;SDS011;17580;50.850;4.504;2022-07-05T01:17:22;1.70;;;1.60;;
10191;SDS011;17580;50.850;4.504;2022-07-05T01:19:49;1.47;;;1.47;;
10191;SDS011;17580;50.850;4.504;2022-07-05T01:22:17;1.80;;;1.70;;
10191;SDS011;17580;50.850;4.504;2022-07-05T01:24:47;1.80;;;1.70;;
10191;SDS011;17580;50.850;4.504;2022-07-05T01:27:15;1.47;;;1.47;;
10191;SDS011;17580;50.850;4.504;2022-07-05T01:29:43;2.70;;;1.40;;
10191;SDS011;17580;50.850;4.504;2022-07-05T01:32:10;1.73;;;1.63;;
10191;SDS011;17580;50.850;4.504;2022-07-05T01:34:37;1.80;;;1.70;;
10191;SDS011;17580;50.850;4.504;2022-07-05T01:37:05;3.33;;;1.87;;
10191;SDS011;17580;50.850;4.504;2022-07-05T01:39:32;1.67;;;1.60;;
10191;SDS011;17580;50.850;4.504;2022-07-05T01:42:01;1.93;;;1.83;;
10191;SDS011;17580;50.850;4.504;2022-07-05T01:44:29;1.70;;;1.60;;
10191;SDS011;17580;50.850;4.504;2022-07-05T01:46:58;1.40;;;1.40;;
10191;SDS011;17580;50.850;4.504;2022-07-05T01:49:31;2.33;;;1.87;;
10191;SDS011;17580;50.850;4.504;2022-07-05T01:52:07;2.03;;;1.93;;
10191;SDS011;17580;50.850;4.504;2022-07-05T01:54:35;1.70;;;1.60;;
10191;SDS011;17580;50.850;4.504;2022-07-05T01:57:04;5.07;;;1.70;;
10191;SDS011;17580;50.850;4.504;2022-07-05T01:59:32;1.50;;;1.37;;
10191;SDS011;17580;50.850;4.504;2022-07-05T02:02:00;1.67;;;1.60;;
10191;SDS011;17580;50.850;4.504;2022-07-05T02:04:27;2.30;;;1.90;;
10191;SDS011;17580;50.850;4.504;2022-07-05T02:06:54;1.50;;;1.50;;
10191;SDS011;17580;50.850;4.504;2022-07-05T02:09:21;1.80;;;1.70;;
10191;SDS011;17580;50.850;4.504;2022-07-05T02:11:48;1.50;;;1.40;;
10191;SDS011;17580;50.850;4.504;2022-07-05T02:14:17;1.70;;;1.60;;
10191;SDS011;17580;50.850;4.504;2022-07-05T02:16:44;1.93;;;1.80;;
10191;SDS011;17580;50.850;4.504;2022-07-05T02:19:11;1.87;;;1.77;;
10191;SDS011;17580;50.850;4.504;2022-07-05T02:21:38;2.20;;;2.00;;
10191;SDS011;17580;50.850;4.504;2022-07-05T02:24:05;1.67;;;1.53;;
10191;SDS011;17580;50.850;4.504;2022-07-05T02:26:33;1.50;;;1.40;;
10191;SDS011;17580;50.850;4.504;2022-07-05T02:29:00;1.70;;;1.70;;
10191;SDS011;17580;50.850;4.504;2022-07-05T02:31:30;1.50;;;1.40;;
10191;SDS011;17580;50.850;4.504;2022-07-05T02:33:57;1.60;;;1.50;;
10191;SDS011;17580;50.850;4.504;2022-07-05T02:36:24;1.80;;;1.80;;
10191;SDS011;17580;50.850;4.504;2022-07-05T02:38:51;1.77;;;1.70;;
10191;SDS011;17580;50.850;4.504;2022-07-05T02:41:18;2.30;;;1.97;;
10191;SDS011;17580;50.850;4.504;2022-07-05T02:43:45;1.60;;;1.60;;
10191;SDS011;17580;50.850;4.504;2022-07-05T02:46:12;1.80;;;1.70;;
10191;SDS011;17580;50.850;4.504;2022-07-05T02:48:41;1.60;;;1.50;;
10191;SDS011;17580;50.850;4.504;2022-07-05T02:51:08;1.93;;;1.83;;
10191;SDS011;17580;50.850;4.504;2022-07-05T02:53:35;1.80;;;1.70;;
10191;SDS011;17580;50.850;4.504;2022-07-05T02:56:02;1.87;;;1.70;;
10191;SDS011;17580;50.850;4.504;2022-07-05T02:58:29;1.60;;;1.50;;
10191;SDS011;17580;50.850;4.504;2022-07-05T03:00:56;1.40;;;1.30;;
10191;SDS011;17580;50.850;4.504;2022-07-05T03:03:23;1.50;;;1.50;;
10191;SDS011;17580;50.850;4.504;2022-07-05T03:05:52;1.47;;;1.47;;
10191;SDS011;17580;50.850;4.504;2022-07-05T03:08:19;2.30;;;2.00;;
10191;SDS011;17580;50.850;4.504;2022-07-05T03:10:46;2.07;;;1.97;;
10191;SDS011;17580;50.850;4.504;2022-07-05T03:13:13;1.83;;;1.73;;
10191;SDS011;17580;50.850;4.504;2022-07-05T03:15:40;1.87;;;1.77;;
10191;SDS011;17580;50.850;4.504;2022-07-05T03:18:07;1.80;;;1.80;;
10191;SDS011;17580;50.850;4.504;2022-07-05T03:20:34;1.83;;;1.73;;
10191;SDS011;17580;50.850;4.504;2022-07-05T03:23:03;1.90;;;1.80;;
10191;SDS011;17580;50.850;4.504;2022-07-05T03:25:30;2.30;;;1.93;;
10191;SDS011;17580;50.850;4.504;2022-07-05T03:27:57;1.83;;;1.73;;
10191;SDS011;17580;50.850;4.504;2022-07-05T03:30:24;1.87;;;1.70;;
10191;SDS011;17580;50.850;4.504;2022-07-05T03:32:50;1.83;;;1.80;;
10191;SDS011;17580;50.850;4.504;2022-07-05T03:35:17;1.93;;;1.60;;
10191;SDS011;17580;50.850;4.504;2022-07-05T03:37:44;1.80;;;1.70;;
10191;SDS011;17580;50.850;4.504;2022-07-05T03:40:13;2.10;;;2.00;;
10191;SDS011;17580;50.850;4.504;2022-07-05T03:42:40;2.00;;;1.90;;
10191;SDS011;17580;50.850;4.504;2022-07-05T03:45:07;1.60;;;1.50;;
10191;SDS011;17580;50.850;4.504;2022-07-05T03:47:35;1.77;;;1.67;;
10191;SDS011;17580;50.850;4.504;2022-07-05T03:50:03;2.20;;;2.00;;
10191;SDS011;17580;50.850;4.504;2022-07-05T03:52:30;2.00;;;1.80;;
10191;SDS011;17580;50.850;4.504;2022-07-05T03:54:57;1.97;;;1.87;;
10191;SDS011;17580;50.850;4.504;2022-07-05T03:57:25;1.77;;;1.67;;
10191;SDS011;17580;50.850;4.504;2022-07-05T03:59:52;2.20;;;1.73;;
10191;SDS011;17580;50.850;4.504;2022-07-05T04:02:19;1.80;;;1.70;;
10191;SDS011;17580;50.850;4.504;2022-07-05T04:04:46;1.70;;;1.60;;
10191;SDS011;17580;50.850;4.504;2022-07-05T04:07:13;3.07;;;1.90;;
10191;SDS011;17580;50.850;4.504;2022-07-05T04:09:40;2.60;;;1.90;;
10191;SDS011;17580;50.850;4.504;2022-07-05T04:12:07;1.50;;;1.47;;
10191;SDS011;17580;50.850;4.504;2022-07-05T04:14:36;1.70;;;1.50;;
10191;SDS011;17580;50.850;4.504;2022-07-05T04:17:03;1.80;;;1.80;;
10191;SDS011;17580;50.850;4.504;2022-07-05T04:19:30;1.90;;;1.80;;
10191;SDS011;17580;50.850;4.504;2022-07-05T04:21:57;2.40;;;2.10;;
10191;SDS011;17580;50.850;4.504;2022-07-05T04:24:24;2.17;;;2.00;;
10191;SDS011;17580;50.850;4.504;2022-07-05T04:26:51;1.73;;;1.63;;
10191;SDS011;17580;50.850;4.504;2022-07-05T04:29:18;2.10;;;1.90;;
10191;SDS011;17580;50.850;4.504;2022-07-05T04:31:46;1.97;;;1.87;;
10191;SDS011;17580;50.850;4.504;2022-07-05T04:34:13;2.23;;;1.80;;
10191;SDS011;17580;50.850;4.504;2022-07-05T04:36:40;3.43;;;2.00;;
10191;SDS011;17580;50.850;4.504;2022-07-05T04:39:07;2.00;;;1.90;;
10191;SDS011;17580;50.850;4.504;2022-07-05T04:41:34;1.80;;;1.70;;
10191;SDS011;17580;50.850;4.504;2022-07-05T04:44:01;2.43;;;1.60;;
10191;SDS011;17580;50.850;4.504;2022-07-05T04:46:28;2.43;;;2.13;;
10191;SDS011;17580;50.850;4.504;2022-07-05T04:48:56;1.83;;;1.73;;
10191;SDS011;17580;50.850;4.504;2022-07-05T04:51:23;2.00;;;1.90;;
10191;SDS011;17580;50.850;4.504;2022-07-05T04:53:50;2.03;;;1.83;;
10191;SDS011;17580;50.850;4.504;2022-07-05T04:56:17;1.90;;;1.80;;
10191;SDS011;17580;50.850;4.504;2022-07-05T04:58:44;2.70;;;2.20;;
10191;SDS011;17580;50.850;4.504;2022-07-05T05:01:11;2.90;;;2.20;;
10191;SDS011;17580;50.850;4.504;2022-07-05T05:03:38;2.23;;;2.00;;
10191;SDS011;17580;50.850;4.504;2022-07-05T05:06:06;2.43;;;1.83;;
10191;SDS011;17580;50.850;4.504;2022-07-05T05:08:33;1.70;;;1.70;;
10191;SDS011;17580;50.850;4.504;2022-07-05T05:11:00;2.17;;;2.00;;
10191;SDS011;17580;50.850;4.504;2022-07-05T05:13:27;2.00;;;1.90;;
10191;SDS011;17580;50.850;4.504;2022-07-05T05:15:54;2.00;;;1.90;;
10191;SDS011;17580;50.850;4.504;2022-07-05T05:18:21;2.10;;;1.90;;
10191;SDS011;17580;50.850;4.504;2022-07-05T05:20:52;3.00;;;2.47;;
10191;SDS011;17580;50.850;4.504;2022-07-05T05:23:21;1.90;;;1.80;;
10191;SDS011;17580;50.850;4.504;2022-07-05T05:25:48;2.20;;;1.87;;
10191;SDS011;17580;50.850;4.504;2022-07-05T05:28:16;2.43;;;2.23;;
10191;SDS011;17580;50.850;4.504;2022-07-05T05:30:43;2.23;;;2.13;;
10191;SDS011;17580;50.850;4.504;2022-07-05T05:33:10;2.27;;;2.10;;
10191;SDS011;17580;50.850;4.504;2022-07-05T05:35:37;3.10;;;2.90;;
10191;SDS011;17580;50.850;4.504;2022-07-05T05:38:04;2.63;;;2.43;;
10191;SDS011;17580;50.850;4.504;2022-07-05T05:40:32;2.83;;;2.40;;
10191;SDS011;17580;50.850;4.504;2022-07-05T05:42:59;2.90;;;2.70;;
10191;SDS011;17580;50.850;4.504;2022-07-05T05:45:26;2.90;;;2.67;;
10191;SDS011;17580;50.850;4.504;2022-07-05T05:47:54;4.83;;;3.13;;
10191;SDS011;17580;50.850;4.504;2022-07-05T05:50:23;3.40;;;2.80;;
10191;SDS011;17580;50.850;4.504;2022-07-05T05:52:51;2.77;;;2.60;;
10191;SDS011;17580;50.850;4.504;2022-07-05T05:55:19;3.93;;;2.57;;
10191;SDS011;17580;50.850;4.504;2022-07-05T05:57:48;1.80;;;1.70;;
10191;SDS011;17580;50.850;4.504;2022-07-05T06:00:15;3.53;;;2.33;;
10191;SDS011;17580;50.850;4.504;2022-07-05T06:02:42;3.53;;;2.43;;
10191;SDS011;17580;50.850;4.504;2022-07-05T06:05:10;2.70;;;2.50;;
10191;SDS011;17580;50.850;4.504;2022-07-05T06:07:44;3.60;;;2.47;;
10191;SDS011;17580;50.850;4.504;2022-07-05T06:10:14;3.20;;;2.47;;
10191;SDS011;17580;50.850;4.504;2022-07-05T06:12:42;3.03;;;2.53;;
10191;SDS011;17580;50.850;4.504;2022-07-05T06:15:11;2.53;;;2.00;;
10191;SDS011;17580;50.850;4.504;2022-07-05T06:17:38;2.60;;;2.40;;
10191;SDS011;17580;50.850;4.504;2022-07-05T06:20:06;5.27;;;2.20;;
10191;SDS011;17580;50.850;4.504;2022-07-05T06:22:34;4.00;;;3.00;;
10191;SDS011;17580;50.850;4.504;2022-07-05T06:25:01;3.63;;;2.77;;
10191;SDS011;17580;50.850;4.504;2022-07-05T06:27:28;3.30;;;2.33;;
10191;SDS011;17580;50.850;4.504;2022-07-05T06:29:55;3.17;;;2.80;;
10191;SDS011;17580;50.850;4.504;2022-07-05T06:32:24;2.27;;;2.07;;
10191;SDS011;17580;50.850;4.504;2022-07-05T06:34:51;3.80;;;2.87;;
10191;SDS011;17580;50.850;4.504;2022-07-05T06:37:18;5.80;;;2.70;;
10191;SDS011;17580;50.850;4.504;2022-07-05T06:39:45;3.13;;;2.40;;
10191;SDS011;17580;50.850;4.504;2022-07-05T06:42:11;2.40;;;2.20;;
10191;SDS011;17580;50.850;4.504;2022-07-05T06:44:38;4.40;;;2.80;;
10191;SDS011;17580;50.850;4.504;2022-07-05T06:47:05;2.27;;;2.00;;
10191;SDS011;17580;50.850;4.504;2022-07-05T06:49:34;2.13;;;1.93;;
10191;SDS011;17580;50.850;4.504;2022-07-05T06:52:01;3.27;;;2.40;;
10191;SDS011;17580;50.850;4.504;2022-07-05T06:54:28;2.67;;;2.50;;
10191;SDS011;17580;50.850;4.504;2022-07-05T06:56:55;2.30;;;2.10;;
10191;SDS011;17580;50.850;4.504;2022-07-05T06:59:22;2.97;;;2.50;;
10191;SDS011;17580;50.850;4.504;2022-07-05T07:01:49;3.73;;;2.63;;
10191;SDS011;17580;50.850;4.504;2022-07-05T07:04:16;2.60;;;2.40;;
10191;SDS011;17580;50.850;4.504;2022-07-05T07:06:44;3.43;;;2.53;;
10191;SDS011;17580;50.850;4.504;2022-07-05T07:09:11;4.77;;;3.10;;
10191;SDS011;17580;50.850;4.504;2022-07-05T07:11:47;4.37;;;2.53;;
10191;SDS011;17580;50.850;4.504;2022-07-05T07:14:15;4.17;;;2.27;;
10191;SDS011;17580;50.850;4.504;2022-07-05T07:16:42;2.83;;;2.50;;
10191;SDS011;17580;50.850;4.504;2022-07-05T07:19:09;3.17;;;2.83;;
10191;SDS011;17580;50.850;4.504;2022-07-05T07:21:37;3.10;;;2.10;;
10191;SDS011;17580;50.850;4.504;2022-07-05T07:24:05;8.27;;;2.97;;
10191;SDS011;17580;50.850;4.504;2022-07-05T07:26:33;6.37;;;3.00;;
10191;SDS011;17580;50.850;4.504;2022-07-05T07:29:26;4.60;;;2.80;;
10191;SDS011;17580;50.850;4.504;2022-07-05T07:31:53;4.80;;;2.40;;
10191;SDS011;17580;50.850;4.504;2022-07-05T07:34:19;2.93;;;2.60;;
10191;SDS011;17580;50.850;4.504;2022-07-05T07:36:46;3.47;;;2.90;;
10191;SDS011;17580;50.850;4.504;2022-07-05T07:39:15;3.73;;;2.53;;
10191;SDS011;17580;50.850;4.504;2022-07-05T07:41:42;5.50;;;2.90;;
10191;SDS011;17580;50.850;4.504;2022-07-05T07:44:09;8.27;;;3.13;;
10191;SDS011;17580;50.850;4.504;2022-07-05T07:46:36;7.97;;;3.17;;
10191;SDS011;17580;50.850;4.504;2022-07-05T07:49:05;4.53;;;3.30;;
10191;SDS011;17580;50.850;4.504;2022-07-05T07:51:32;4.00;;;2.57;;
10191;SDS011;17580;50.850;4.504;2022-07-05T07:53:59;4.80;;;2.63;;
10191;SDS011;17580;50.850;4.504;2022-07-05T07:56:27;3.37;;;2.87;;
10191;SDS011;17580;50.850;4.504;2022-07-05T07:58:54;8.70;;;3.10;;
10191;SDS011;17580;50.850;4.504;2022-07-05T08:01:21;6.00;;;2.53;;
10191;SDS011;17580;50.850;4.504;2022-07-05T08:03:48;7.07;;;3.40;;
10191;SDS011;17580;50.850;4.504;2022-07-05T08:06:15;2.60;;;2.47;;
10191;SDS011;17580;50.850;4.504;2022-07-05T08:08:43;3.67;;;2.93;;
10191;SDS011;17580;50.850;4.504;2022-07-05T08:11:11;3.90;;;2.63;;
10191;SDS011;17580;50.850;4.504;2022-07-05T08:13:40;3.90;;;2.97;;
10191;SDS011;17580;50.850;4.504;2022-07-05T08:16:07;7.37;;;2.80;;
10191;SDS011;17580;50.850;4.504;2022-07-05T08:18:35;4.67;;;2.80;;
10191;SDS011;17580;50.850;4.504;2022-07-05T08:21:19;5.70;;;2.93;;
10191;SDS011;17580;50.850;4.504;2022-07-05T08:24:00;3.10;;;2.90;;
10191;SDS011;17580;50.850;4.504;2022-07-05T08:26:29;4.50;;;2.63;;
10191;SDS011;17580;50.850;4.504;2022-07-05T08:28:57;2.67;;;2.10;;
10191;SDS011;17580;50.850;4.504;2022-07-05T08:31:26;2.77;;;2.40;;
10191;SDS011;17580;50.850;4.504;2022-07-05T08:33:55;1.90;;;1.80;;
10191;SDS011;17580;50.850;4.504;2022-07-05T08:36:23;4.07;;;2.53;;
10191;SDS011;17580;50.850;4.504;2022-07-05T08:38:50;4.23;;;2.50;;
10191;SDS011;17580;50.850;4.504;2022-07-05T08:41:18;2.57;;;2.37;;
10191;SDS011;17580;50.850;4.504;2022-07-05T08:43:46;3.87;;;2.50;;
10191;SDS011;17580;50.850;4.504;2022-07-05T08:46:16;5.80;;;2.53;;
10191;SDS011;17580;50.850;4.504;2022-07-05T08:48:46;6.37;;;2.77;;
10191;SDS011;17580;50.850;4.504;2022-07-05T08:51:15;5.47;;;2.80;;
10191;SDS011;17580;50.850;4.504;2022-07-05T08:53:46;2.60;;;2.40;;
10191;SDS011;17580;50.850;4.504;2022-07-05T08:56:14;2.87;;;2.20;;
10191;SDS011;17580;50.850;4.504;2022-07-05T08:58:41;2.43;;;1.80;;
10191;SDS011;17580;50.850;4.504;2022-07-05T09:01:09;2.83;;;2.47;;
10191;SDS011;17580;50.850;4.504;2022-07-05T09:03:39;2.67;;;1.97;;
10191;SDS011;17580;50.850;4.504;2022-07-05T09:06:11;2.33;;;2.13;;
10191;SDS011;17580;50.850;4.504;2022-07-05T09:08:39;4.37;;;2.20;;
10191;SDS011;17580;50.850;4.504;2022-07-05T09:11:08;3.90;;;2.13;;
10191;SDS011;17580;50.850;4.504;2022-07-05T09:13:37;3.27;;;2.50;;
10191;SDS011;17580;50.850;4.504;2022-07-05T09:16:06;3.40;;;2.30;;
10191;SDS011;17580;50.850;4.504;2022-07-05T09:18:42;2.93;;;1.80;;
10191;SDS011;17580;50.850;4.504;2022-07-05T09:21:17;2.83;;;2.20;;
10191;SDS011;17580;50.850;4.504;2022-07-05T09:23:52;3.47;;;3.10;;
10191;SDS011;17580;50.850;4.504;2022-07-05T09:26:20;5.30;;;2.30;;
10191;SDS011;17580;50.850;4.504;2022-07-05T09:28:54;2.67;;;2.10;;
10191;SDS011;17580;50.850;4.504;2022-07-05T09:31:26;4.07;;;2.50;;
10191;SDS011;17580;50.850;4.504;2022-07-05T09:33:58;2.40;;;2.20;;
10191;SDS011;17580;50.850;4.504;2022-07-05T09:39:15;2.50;;;2.30;;
10191;SDS011;17580;50.850;4.504;2022-07-05T09:41:43;3.40;;;2.50;;
10191;SDS011;17580;50.850;4.504;2022-07-05T09:44:10;3.17;;;2.43;;
10191;SDS011;17580;50.850;4.504;2022-07-05T09:46:37;4.10;;;2.03;;
10191;SDS011;17580;50.850;4.504;2022-07-05T09:49:05;1.97;;;1.87;;
10191;SDS011;17580;50.850;4.504;2022-07-05T09:51:46;2.83;;;2.23;;
10191;SDS011;17580;50.850;4.504;2022-07-05T09:54:14;4.33;;;2.20;;
10191;SDS011;17580;50.850;4.504;2022-07-05T09:56:45;1.93;;;1.67;;
10191;SDS011;17580;50.850;4.504;2022-07-05T09:59:13;3.27;;;1.90;;
10191;SDS011;17580;50.850;4.504;2022-07-05T10:01:43;3.40;;;2.40;;
10191;SDS011;17580;50.850;4.504;2022-07-05T10:04:11;2.60;;;2.40;;
10191;SDS011;17580;50.850;4.504;2022-07-05T10:06:38;3.13;;;2.20;;
10191;SDS011;17580;50.850;4.504;2022-07-05T10:09:05;4.03;;;2.17;;
10191;SDS011;17580;50.850;4.504;2022-07-05T10:11:33;4.73;;;2.20;;
10191;SDS011;17580;50.850;4.504;2022-07-05T10:14:03;3.47;;;2.40;;
10191;SDS011;17580;50.850;4.504;2022-07-05T10:16:35;4.53;;;2.80;;
10191;SDS011;17580;50.850;4.504;2022-07-05T10:19:02;3.43;;;2.50;;
10191;SDS011;17580;50.850;4.504;2022-07-05T10:21:36;4.23;;;2.07;;
10191;SDS011;17580;50.850;4.504;2022-07-05T10:24:05;2.63;;;2.30;;
10191;SDS011;17580;50.850;4.504;2022-07-05T10:26:32;2.63;;;2.40;;
10191;SDS011;17580;50.850;4.504;2022-07-05T10:28:59;6.10;;;2.50;;
10191;SDS011;17580;50.850;4.504;2022-07-05T10:31:27;3.70;;;2.37;;
10191;SDS011;17580;50.850;4.504;2022-07-05T10:33:55;2.70;;;2.50;;
10191;SDS011;17580;50.850;4.504;2022-07-05T10:36:22;2.40;;;2.20;;
10191;SDS011;17580;50.850;4.504;2022-07-05T10:38:50;3.73;;;2.30;;
10191;SDS011;17580;50.850;4.504;2022-07-05T10:41:19;3.90;;;2.60;;
10191;SDS011;17580;50.850;4.504;2022-07-05T10:43:52;2.47;;;2.17;;
10191;SDS011;17580;50.850;4.504;2022-07-05T10:46:32;3.83;;;3.33;;
10191;SDS011;17580;50.850;4.504;2022-07-05T10:49:09;3.80;;;3.03;;
10191;SDS011;17580;50.850;4.504;2022-07-05T10:51:46;2.90;;;2.60;;
10191;SDS011;17580;50.850;4.504;2022-07-05T10:54:15;4.10;;;2.80;;
10191;SDS011;17580;50.850;4.504;2022-07-05T10:56:43;3.87;;;2.80;;
10191;SDS011;17580;50.850;4.504;2022-07-05T11:00:03;2.20;;;2.00;;
10191;SDS011;17580;50.850;4.504;2022-07-05T11:02:31;2.50;;;2.17;;
10191;SDS011;17580;50.850;4.504;2022-07-05T11:04:58;2.27;;;2.07;;
10191;SDS011;17580;50.850;4.504;2022-07-05T11:10:25;3.13;;;2.40;;
10191;SDS011;17580;50.850;4.504;2022-07-05T11:12:52;2.10;;;2.00;;
10191;SDS011;17580;50.850;4.504;2022-07-05T11:15:19;1.97;;;1.77;;
10191;SDS011;17580;50.850;4.504;2022-07-05T11:17:46;2.63;;;2.03;;
10191;SDS011;17580;50.850;4.504;2022-07-05T11:20:14;2.60;;;1.73;;
10191;SDS011;17580;50.850;4.504;2022-07-05T11:23:03;2.63;;;2.43;;
10191;SDS011;17580;50.850;4.504;2022-07-05T11:25:43;2.70;;;2.00;;
10191;SDS011;17580;50.850;4.504;2022-07-05T11:28:20;2.60;;;2.23;;
10191;SDS011;17580;50.850;4.504;2022-07-05T11:30:50;2.40;;;1.90;;
10191;SDS011;17580;50.850;4.504;2022-07-05T11:33:25;1.87;;;1.77;;
10191;SDS011;17580;50.850;4.504;2022-07-05T11:36:22;1.70;;;1.60;;
10191;SDS011;17580;50.850;4.504;2022-07-05T11:39:06;2.10;;;2.00;;
10191;SDS011;17580;50.850;4.504;2022-07-05T11:41:47;2.77;;;1.80;;
10191;SDS011;17580;50.850;4.504;2022-07-05T11:44:15;2.83;;;1.87;;
10191;SDS011;17580;50.850;4.504;2022-07-05T11:46:42;2.00;;;1.80;;
10191;SDS011;17580;50.850;4.504;2022-07-05T11:49:10;2.00;;;1.70;;
10191;SDS011;17580;50.850;4.504;2022-07-05T11:51:37;2.00;;;1.80;;
10191;SDS011;17580;50.850;4.504;2022-07-05T11:54:04;1.60;;;1.50;;
10191;SDS011;17580;50.850;4.504;2022-07-05T11:56:35;1.70;;;1.60;;
10191;SDS011;17580;50.850;4.504;2022-07-05T11:59:17;1.53;;;1.43;;
10191;SDS011;17580;50.850;4.504;2022-07-05T12:01:44;2.90;;;1.60;;
10191;SDS011;17580;50.850;4.504;2022-07-05T12:04:11;1.83;;;1.63;;
10191;SDS011;17580;50.850;4.504;2022-07-05T12:06:46;1.47;;;1.43;;
10191;SDS011;17580;50.850;4.504;2022-07-05T12:09:15;1.83;;;1.73;;
10191;SDS011;17580;50.850;4.504;2022-07-05T12:11:49;1.43;;;1.33;;
10191;SDS011;17580;50.850;4.504;2022-07-05T12:14:35;1.87;;;1.47;;
10191;SDS011;17580;50.850;4.504;2022-07-05T12:17:12;2.20;;;1.53;;
10191;SDS011;17580;50.850;4.504;2022-07-05T12:19:40;1.70;;;1.57;;
10191;SDS011;17580;50.850;4.504;2022-07-05T12:22:06;1.37;;;1.30;;
10191;SDS011;17580;50.850;4.504;2022-07-05T12:24:33;1.90;;;1.73;;
10191;SDS011;17580;50.850;4.504;2022-07-05T12:27:01;1.50;;;1.40;;
10191;SDS011;17580;50.850;4.504;2022-07-05T12:29:29;2.07;;;1.73;;
10191;SDS011;17580;50.850;4.504;2022-07-05T12:32:01;5.70;;;2.27;;
10191;SDS011;17580;50.850;4.504;2022-07-05T12:34:33;2.40;;;1.50;;
10191;SDS011;17580;50.850;4.504;2022-07-05T12:37:01;1.70;;;1.60;;
10191;SDS011;17580;50.850;4.504;2022-07-05T12:39:28;1.70;;;1.60;;
10191;SDS011;17580;50.850;4.504;2022-07-05T12:41:56;2.77;;;2.30;;
10191;SDS011;17580;50.850;4.504;2022-07-05T12:44:22;2.50;;;2.00;;
10191;SDS011;17580;50.850;4.504;2022-07-05T12:46:49;3.87;;;2.03;;
10191;SDS011;17580;50.850;4.504;2022-07-05T12:49:18;2.20;;;1.87;;
10191;SDS011;17580;50.850;4.504;2022-07-05T12:51:45;5.90;;;2.83;;
10191;SDS011;17580;50.850;4.504;2022-07-05T12:54:19;2.17;;;1.97;;
10191;SDS011;17580;50.850;4.504;2022-07-05T12:57:04;2.73;;;1.97;;
10191;SDS011;17580;50.850;4.504;2022-07-05T12:59:59;4.23;;;2.27;;
10191;SDS011;17580;50.850;4.504;2022-07-05T13:02:35;4.57;;;2.00;;
10191;SDS011;17580;50.850;4.504;2022-07-05T13:05:05;2.30;;;2.10;;
10191;SDS011;17580;50.850;4.504;2022-07-05T13:07:33;3.70;;;2.47;;
10191;SDS011;17580;50.850;4.504;2022-07-05T13:10:13;3.03;;;2.47;;
10191;SDS011;17580;50.850;4.504;2022-07-05T13:12:43;1.83;;;1.73;;
10191;SDS011;17580;50.850;4.504;2022-07-05T13:15:10;2.10;;;1.90;;
10191;SDS011;17580;50.850;4.504;2022-07-05T13:17:38;1.77;;;1.67;;
10191;SDS011;17580;50.850;4.504;2022-07-05T13:20:08;2.90;;;1.87;;
10191;SDS011;17580;50.850;4.504;2022-07-05T13:22:35;4.20;;;1.93;;
10191;SDS011;17580;50.850;4.504;2022-07-05T13:25:03;1.87;;;1.77;;
10191;SDS011;17580;50.850;4.504;2022-07-05T13:27:30;2.13;;;1.70;;
10191;SDS011;17580;50.850;4.504;2022-07-05T13:29:59;4.47;;;1.73;;
10191;SDS011;17580;50.850;4.504;2022-07-05T13:32:26;2.30;;;2.20;;
10191;SDS011;17580;50.850;4.504;2022-07-05T13:34:53;1.53;;;1.43;;
10191;SDS011;17580;50.850;4.504;2022-07-05T13:37:21;1.83;;;1.70;;
10191;SDS011;17580;50.850;4.504;2022-07-05T13:39:48;3.13;;;1.90;;
10191;SDS011;17580;50.850;4.504;2022-07-05T13:42:15;2.53;;;1.73;;
10191;SDS011;17580;50.850;4.504;2022-07-05T13:44:42;3.07;;;1.53;;
10191;SDS011;17580;50.850;4.504;2022-07-05T13:47:09;1.30;;;1.30;;
10191;SDS011;17580;50.850;4.504;2022-07-05T13:49:36;1.60;;;1.50;;
10191;SDS011;17580;50.850;4.504;2022-07-05T13:52:05;2.13;;;1.27;;
10191;SDS011;17580;50.850;4.504;2022-07-05T13:54:34;3.43;;;2.10;;
10191;SDS011;17580;50.850;4.504;2022-07-05T13:57:01;4.27;;;1.83;;
10191;SDS011;17580;50.850;4.504;2022-07-05T13:59:28;1.93;;;1.70;;
10191;SDS011;17580;50.850;4.504;2022-07-05T14:01:55;1.17;;;1.17;;
10191;SDS011;17580;50.850;4.504;2022-07-05T14:04:22;1.40;;;1.30;;
10191;SDS011;17580;50.850;4.504;2022-07-05T14:06:50;4.93;;;1.50;;
10191;SDS011;17580;50.850;4.504;2022-07-05T14:09:17;1.17;;;1.13;;
10191;SDS011;17580;50.850;4.504;2022-07-05T14:11:45;1.60;;;1.50;;
10191;SDS011;17580;50.850;4.504;2022-07-05T14:14:12;1.60;;;1.50;;
10191;SDS011;17580;50.850;4.504;2022-07-05T14:16:39;1.60;;;1.40;;
10191;SDS011;17580;50.850;4.504;2022-07-05T14:19:06;1.33;;;1.33;;
10191;SDS011;17580;50.850;4.504;2022-07-05T14:21:33;1.30;;;1.20;;
10191;SDS011;17580;50.850;4.504;2022-07-05T14:24:00;3.27;;;1.90;;
10191;SDS011;17580;50.850;4.504;2022-07-05T14:26:27;7.57;;;2.33;;
10191;SDS011;17580;50.850;4.504;2022-07-05T14:28:55;1.63;;;1.50;;
10191;SDS011;17580;50.850;4.504;2022-07-05T14:31:22;1.23;;;1.20;;
10191;SDS011;17580;50.850;4.504;2022-07-05T14:33:49;1.30;;;1.20;;
10191;SDS011;17580;50.850;4.504;2022-07-05T14:36:16;2.10;;;1.30;;
10191;SDS011;17580;50.850;4.504;2022-07-05T14:38:44;1.83;;;1.60;;
10191;SDS011;17580;50.850;4.504;2022-07-05T14:41:11;3.13;;;1.60;;
10191;SDS011;17580;50.850;4.504;2022-07-05T14:43:38;2.73;;;1.70;;
10191;SDS011;17580;50.850;4.504;2022-07-05T14:46:06;1.73;;;1.30;;
10191;SDS011;17580;50.850;4.504;2022-07-05T14:48:37;1.57;;;1.40;;
10191;SDS011;17580;50.850;4.504;2022-07-05T14:51:04;1.63;;;1.20;;
10191;SDS011;17580;50.850;4.504;2022-07-05T14:53:31;4.20;;;1.30;;
10191;SDS011;17580;50.850;4.504;2022-07-05T14:55:57;3.63;;;1.50;;
10191;SDS011;17580;50.850;4.504;2022-07-05T14:58:24;1.33;;;1.27;;
10191;SDS011;17580;50.850;4.504;2022-07-05T15:00:56;1.20;;;1.10;;
10191;SDS011;17580;50.850;4.504;2022-07-05T15:03:25;2.03;;;1.23;;